createdAt,value
2018-04-22T00:01:32.141Z,5.20
2018-04-22T00:03:59.672Z,6.20
2018-04-22T00:06:27.573Z,6.15
2018-04-22T00:08:55.081Z,5.87
2018-04-22T00:11:22.617Z,6.55
2018-04-22T00:13:50.245Z,6.22
2018-04-22T00:16:17.772Z,6.43
2018-04-22T00:18:45.810Z,6.60
2018-04-22T00:21:13.333Z,4.68
2018-04-22T00:23:40.876Z,4.82
2018-04-22T00:26:08.401Z,4.72
2018-04-22T00:28:36.303Z,4.72
2018-04-22T00:31:03.856Z,5.05
2018-04-22T00:33:31.357Z,4.97
2018-04-22T00:35:58.952Z,4.85
2018-04-22T00:38:26.614Z,5.68
2018-04-22T00:40:54.132Z,5.00
2018-04-22T00:43:21.744Z,4.60
2018-04-22T00:45:49.273Z,4.40
2018-04-22T00:48:16.781Z,4.65
2018-04-22T00:50:44.291Z,5.60
2018-04-22T00:53:11.824Z,5.37
2018-04-22T00:55:39.726Z,5.18
2018-04-22T00:58:07.250Z,5.43
2018-04-22T01:00:34.753Z,5.22
2018-04-22T01:03:02.269Z,5.20
2018-04-22T01:05:29.783Z,5.07
2018-04-22T01:07:57.306Z,5.27
2018-04-22T01:10:24.817Z,5.20
2018-04-22T01:12:52.740Z,4.75
2018-04-22T01:15:20.269Z,4.28
2018-04-22T01:17:47.792Z,4.68
2018-04-22T01:20:15.797Z,4.62
2018-04-22T01:22:43.325Z,4.75
2018-04-22T01:25:11.229Z,4.25
2018-04-22T01:27:38.772Z,4.57
2018-04-22T01:30:06.299Z,4.70
2018-04-22T01:32:34.300Z,4.10
2018-04-22T01:35:01.961Z,5.07
2018-04-22T01:37:29.460Z,4.57
2018-04-22T01:39:57.076Z,4.33
2018-04-22T01:42:24.603Z,4.53
2018-04-22T01:44:52.529Z,4.53
2018-04-22T01:47:20.033Z,5.13
2018-04-22T01:49:47.548Z,4.73
2018-04-22T01:52:15.049Z,4.83
2018-04-22T01:54:42.606Z,5.40
2018-04-22T01:57:10.225Z,4.70
2018-04-22T01:59:37.742Z,5.03
2018-04-22T02:02:05.241Z,4.63
2018-04-22T02:04:33.177Z,6.20
2018-04-22T02:07:00.673Z,5.23
2018-04-22T02:09:28.204Z,4.70
2018-04-22T02:11:55.778Z,4.47
2018-04-22T02:14:23.485Z,5.17
2018-04-22T02:16:50.987Z,5.20
2018-04-22T02:19:18.577Z,4.93
2018-04-22T02:21:46.235Z,4.73
2018-04-22T02:24:13.896Z,4.70
2018-04-22T02:26:41.559Z,4.53
2018-04-22T02:29:09.058Z,4.87
2018-04-22T02:31:36.812Z,4.60
2018-04-22T02:34:04.315Z,4.43
2018-04-22T02:36:31.837Z,4.43
2018-04-22T02:38:59.361Z,4.20
2018-04-22T02:41:26.890Z,4.37
2018-04-22T02:43:54.416Z,4.77
2018-04-22T02:46:22.837Z,4.90
2018-04-22T02:48:50.344Z,4.47
2018-04-22T02:51:17.868Z,4.43
2018-04-22T02:53:45.370Z,4.80
2018-04-22T02:56:12.906Z,4.40
2018-04-22T02:58:40.513Z,4.33
2018-04-22T03:01:08.039Z,4.43
2018-04-22T03:03:35.610Z,4.50
2018-04-22T03:06:03.148Z,3.80
2018-04-22T03:08:30.661Z,4.40
2018-04-22T03:10:58.186Z,4.83
2018-04-22T03:13:25.838Z,4.07
2018-04-22T03:15:53.336Z,3.30
2018-04-22T03:18:20.856Z,3.70
2018-04-22T03:20:48.420Z,4.10
2018-04-22T03:23:15.945Z,4.43
2018-04-22T03:25:43.845Z,4.20
2018-04-22T03:28:11.373Z,3.57
2018-04-22T03:30:39.037Z,4.20
2018-04-22T03:33:06.702Z,4.33
2018-04-22T03:35:34.359Z,4.67
2018-04-22T03:38:01.885Z,6.07
2018-04-22T03:40:29.812Z,3.97
2018-04-22T03:42:57.552Z,4.63
2018-04-22T03:45:25.255Z,4.23
2018-04-22T03:47:52.797Z,4.40
2018-04-22T03:50:20.309Z,4.70
2018-04-22T03:52:47.840Z,5.70
2018-04-22T03:55:15.742Z,4.87
2018-04-22T03:57:43.265Z,5.10
2018-04-22T04:00:10.881Z,4.63
2018-04-22T04:02:38.413Z,4.07
2018-04-22T04:05:05.913Z,6.40
2018-04-22T04:07:33.428Z,4.30
2018-04-22T04:10:00.945Z,4.93
2018-04-22T04:12:28.445Z,4.13
2018-04-22T04:14:55.967Z,4.87
2018-04-22T04:17:23.533Z,4.17
2018-04-22T04:20:02.876Z,4.73
2018-04-22T04:22:42.206Z,5.23
2018-04-22T04:28:08.651Z,4.07
2018-04-22T04:30:36.178Z,4.47
2018-04-22T04:33:04.080Z,4.50
2018-04-22T04:35:31.645Z,4.60
2018-04-22T04:37:59.134Z,4.20
2018-04-22T04:40:26.729Z,4.63
2018-04-22T04:42:54.235Z,4.33
2018-04-22T04:45:21.768Z,3.73
2018-04-22T04:47:49.397Z,3.73
2018-04-22T04:50:16.924Z,3.90
2018-04-22T04:52:44.433Z,3.83
2018-04-22T04:55:11.953Z,4.10
2018-04-22T04:57:39.848Z,4.13
2018-04-22T05:00:07.369Z,4.40
2018-04-22T05:02:34.869Z,4.20
2018-04-22T05:05:02.397Z,4.60
2018-04-22T05:07:29.911Z,3.70
2018-04-22T05:09:57.454Z,4.10
2018-04-22T05:12:24.954Z,4.27
2018-04-22T05:14:52.490Z,3.70
2018-04-22T05:17:19.994Z,3.83
2018-04-22T05:19:47.507Z,3.83
2018-04-22T05:22:15.492Z,4.33
2018-04-22T05:24:43.154Z,3.67
2018-04-22T05:27:10.673Z,3.87
2018-04-22T05:29:38.166Z,4.23
2018-04-22T05:32:05.725Z,3.93
2018-04-22T05:34:33.392Z,3.87
2018-04-22T05:37:00.914Z,4.03
2018-04-22T05:39:28.817Z,3.80
2018-04-22T05:41:56.368Z,3.97
2018-04-22T05:44:23.873Z,3.53
2018-04-22T05:46:51.393Z,4.03
2018-04-22T05:49:18.950Z,4.18
2018-04-22T05:51:46.468Z,3.62
2018-04-22T05:54:13.968Z,3.40
2018-04-22T05:56:41.506Z,3.22
2018-04-22T05:59:09.025Z,4.20
2018-04-22T06:01:36.933Z,3.15
2018-04-22T06:04:04.452Z,3.33
2018-04-22T06:06:31.984Z,3.10
2018-04-22T06:08:59.592Z,3.33
2018-04-22T06:11:27.095Z,2.70
2018-04-22T06:13:54.695Z,3.17
2018-04-22T06:16:22.208Z,2.78
2018-04-22T06:18:49.811Z,2.80
2018-04-22T06:21:17.321Z,2.83
2018-04-22T06:23:44.852Z,3.03
2018-04-22T06:26:12.358Z,2.42
2018-04-22T06:28:39.885Z,2.55
2018-04-22T06:31:07.803Z,2.12
2018-04-22T06:33:35.381Z,2.15
2018-04-22T06:36:02.863Z,2.30
2018-04-22T06:38:30.392Z,2.25
2018-04-22T06:40:57.903Z,2.42
2018-04-22T06:43:25.533Z,2.72
2018-04-22T06:45:53.034Z,3.05
2018-04-22T06:48:20.559Z,2.65
2018-04-22T06:50:48.066Z,2.87
2018-04-22T06:53:15.610Z,2.50
2018-04-22T06:55:43.261Z,2.75
2018-04-22T06:58:10.797Z,2.90
2018-04-22T07:00:38.297Z,2.67
2018-04-22T07:03:06.027Z,2.50
2018-04-22T07:05:33.681Z,3.08
2018-04-22T07:08:01.215Z,2.90
2018-04-22T07:10:29.114Z,2.72
2018-04-22T07:12:56.641Z,2.47
2018-04-22T07:15:24.140Z,3.08
2018-04-22T07:17:51.685Z,2.50
2018-04-22T07:20:19.184Z,2.50
2018-04-22T07:22:46.705Z,2.67
2018-04-22T07:25:14.205Z,2.33
2018-04-22T07:27:42.127Z,2.15
2018-04-22T07:30:09.638Z,2.20
2018-04-22T07:32:37.326Z,2.50
2018-04-22T07:35:04.846Z,2.42
2018-04-22T07:37:32.745Z,2.45
2018-04-22T07:40:00.267Z,2.45
2018-04-22T07:42:28.199Z,2.78
2018-04-22T07:44:55.715Z,2.20
2018-04-22T07:47:23.217Z,2.65
2018-04-22T07:49:50.938Z,2.50
2018-04-22T07:52:18.436Z,2.60
2018-04-22T07:54:45.990Z,2.33
2018-04-22T07:57:13.499Z,3.00
2018-04-22T07:59:41.197Z,2.70
2018-04-22T08:02:08.697Z,2.03
2018-04-22T08:04:36.217Z,2.33
2018-04-22T08:07:03.730Z,2.70
2018-04-22T08:09:31.393Z,2.00
2018-04-22T08:11:59.049Z,2.25
2018-04-22T08:14:26.558Z,2.58
2018-04-22T08:16:54.483Z,2.58
2018-04-22T08:19:21.985Z,2.40
2018-04-22T08:21:49.544Z,2.35
2018-04-22T08:24:17.442Z,2.00
2018-04-22T08:26:44.968Z,1.60
2018-04-22T08:29:12.483Z,2.35
2018-04-22T08:31:40.317Z,1.92
2018-04-22T08:34:07.825Z,2.42
2018-04-22T08:36:35.352Z,2.28
2018-04-22T08:39:02.855Z,2.20
2018-04-22T08:41:30.388Z,1.95
2018-04-22T08:43:57.916Z,2.05
2018-04-22T08:46:25.445Z,2.70
2018-04-22T08:48:52.963Z,2.08
2018-04-22T08:51:20.902Z,2.10
2018-04-22T08:53:48.401Z,2.67
2018-04-22T08:56:16.505Z,2.47
2018-04-22T08:58:44.022Z,2.40
2018-04-22T09:01:11.531Z,2.37
2018-04-22T09:03:39.056Z,2.30
2018-04-22T09:06:06.818Z,2.35
2018-04-22T09:08:34.345Z,2.33
2018-04-22T09:11:02.250Z,2.70
2018-04-22T09:13:30.518Z,2.53
2018-04-22T09:15:58.041Z,2.78
2018-04-22T09:18:25.734Z,2.35
2018-04-22T09:20:53.287Z,2.08
2018-04-22T09:23:20.962Z,1.77
2018-04-22T09:25:48.633Z,3.03
2018-04-22T09:28:16.179Z,2.42
2018-04-22T09:30:43.681Z,2.60
2018-04-22T09:33:11.219Z,2.17
2018-04-22T09:35:38.733Z,2.12
2018-04-22T09:38:06.346Z,2.10
2018-04-22T09:40:34.746Z,2.80
2018-04-22T09:43:02.279Z,2.50
2018-04-22T09:45:30.223Z,2.50
2018-04-22T09:47:57.741Z,2.62
2018-04-22T09:50:25.306Z,2.17
2018-04-22T09:52:52.850Z,2.60
2018-04-22T09:55:20.510Z,2.37
2018-04-22T09:57:48.170Z,2.55
2018-04-22T10:00:21.241Z,2.80
2018-04-22T10:02:48.758Z,2.45
2018-04-22T10:05:23.749Z,2.58
2018-04-22T10:07:51.261Z,3.00
2018-04-22T10:10:18.953Z,2.05
2018-04-22T10:12:46.464Z,4.03
2018-04-22T10:15:13.987Z,5.50
2018-04-22T10:17:41.523Z,5.10
2018-04-22T10:20:09.073Z,2.80
2018-04-22T10:22:36.610Z,2.33
2018-04-22T10:25:04.160Z,3.03
2018-04-22T10:27:31.710Z,2.62
2018-04-22T10:29:59.302Z,3.17
2018-04-22T10:32:26.861Z,3.12
2018-04-22T10:34:54.505Z,3.03
2018-04-22T10:37:22.067Z,2.97
2018-04-22T10:39:49.578Z,2.60
2018-04-22T10:42:17.129Z,3.60
2018-04-22T10:44:44.637Z,2.80
2018-04-22T10:47:12.202Z,2.97
2018-04-22T10:49:39.828Z,3.10
2018-04-22T10:52:07.359Z,3.42
2018-04-22T10:54:34.867Z,3.42
2018-04-22T10:57:02.403Z,3.30
2018-04-22T10:59:29.924Z,2.22
2018-04-22T11:01:57.858Z,2.25
2018-04-22T11:04:25.422Z,2.37
2018-04-22T11:06:53.046Z,2.42
2018-04-22T11:09:20.604Z,3.15
2018-04-22T11:11:48.131Z,2.20
2018-04-22T11:14:15.678Z,2.22
2018-04-22T11:16:43.601Z,2.22
2018-04-22T11:19:11.130Z,2.42
2018-04-22T11:21:38.880Z,2.30
2018-04-22T11:24:06.781Z,2.22
2018-04-22T11:26:34.307Z,2.30
2018-04-22T11:29:01.873Z,2.28
2018-04-22T11:31:29.398Z,2.25
2018-04-22T11:33:56.944Z,1.90
2018-04-22T11:36:24.971Z,2.20
2018-04-22T11:38:52.484Z,2.33
2018-04-22T11:41:20.394Z,2.58
2018-04-22T11:43:47.909Z,1.58
2018-04-22T11:46:15.410Z,2.40
2018-04-22T11:48:42.928Z,2.08
2018-04-22T11:51:10.501Z,2.10
2018-04-22T11:53:38.157Z,1.77
2018-04-22T11:56:05.635Z,2.00
2018-04-22T11:58:33.160Z,2.17
2018-04-22T12:01:00.666Z,1.80
2018-04-22T12:03:28.199Z,2.30
2018-04-22T12:05:55.777Z,2.20
2018-04-22T12:08:23.364Z,2.28
2018-04-22T12:10:51.571Z,2.65
2018-04-22T12:13:19.112Z,2.75
2018-04-22T12:15:46.632Z,2.12
2018-04-22T12:18:14.328Z,2.78
2018-04-22T12:20:42.056Z,2.30
2018-04-22T12:23:09.529Z,2.20
2018-04-22T12:25:37.449Z,3.17
2018-04-22T12:28:05.061Z,2.70
2018-04-22T12:30:32.703Z,2.42
2018-04-22T12:33:00.374Z,2.90
2018-04-22T12:35:27.903Z,2.85
2018-04-22T12:37:55.628Z,2.28
2018-04-22T12:40:23.148Z,2.62
2018-04-22T12:42:50.648Z,2.40
2018-04-22T12:45:18.179Z,2.30
2018-04-22T12:47:45.737Z,1.92
2018-04-22T12:50:13.261Z,2.75
2018-04-22T12:52:41.296Z,2.65
2018-04-22T12:55:08.824Z,2.28
2018-04-22T12:57:36.353Z,2.60
2018-04-22T13:00:03.934Z,2.50
2018-04-22T13:02:31.437Z,2.42
2018-04-22T13:04:59.625Z,2.30
2018-04-22T13:07:27.138Z,2.92
2018-04-22T13:09:54.683Z,1.85
2018-04-22T13:12:22.209Z,3.00
2018-04-22T13:14:49.751Z,2.65
2018-04-22T13:17:17.737Z,3.12
2018-04-22T13:19:45.271Z,2.60
2018-04-22T13:22:13.215Z,2.20
2018-04-22T13:24:40.729Z,2.33
2018-04-22T13:27:08.264Z,3.10
2018-04-22T13:29:35.783Z,2.40
2018-04-22T13:32:03.313Z,3.03
2018-04-22T13:34:30.941Z,1.92
2018-04-22T13:36:58.475Z,3.00
2018-04-22T13:39:25.988Z,2.83
2018-04-22T13:41:53.720Z,2.85
2018-04-22T13:44:21.241Z,2.12
2018-04-22T13:46:49.154Z,3.03
2018-04-22T13:49:16.669Z,2.10
2018-04-22T13:51:44.353Z,2.17
2018-04-22T13:54:11.857Z,2.83
2018-04-22T13:56:39.392Z,2.12
2018-04-22T13:59:06.913Z,2.17
2018-04-22T14:01:34.441Z,2.45
2018-04-22T14:04:02.341Z,2.10
2018-04-22T14:06:29.873Z,1.92
2018-04-22T14:08:57.541Z,1.98
2018-04-22T14:11:25.070Z,1.58
2018-04-22T14:13:52.983Z,2.30
2018-04-22T14:16:20.513Z,1.37
2018-04-22T14:18:48.017Z,2.25
2018-04-22T14:21:15.528Z,1.95
2018-04-22T14:23:43.063Z,2.80
2018-04-22T14:26:10.560Z,1.85
2018-04-22T14:28:38.204Z,1.92
2018-04-22T14:31:05.862Z,1.87
2018-04-22T14:33:33.392Z,2.15
2018-04-22T14:36:01.334Z,2.65
2018-04-22T14:38:28.860Z,1.58
2018-04-22T14:40:56.461Z,2.42
2018-04-22T14:43:24.002Z,1.90
2018-04-22T14:46:03.283Z,1.50
2018-04-22T14:48:30.810Z,1.90
2018-04-22T14:50:58.709Z,2.00
2018-04-22T14:53:26.237Z,1.48
2018-04-22T14:55:53.757Z,2.00
2018-04-22T14:58:21.289Z,2.08
2018-04-22T15:00:48.804Z,1.90
2018-04-22T15:03:16.499Z,1.70
2018-04-22T15:05:43.992Z,2.33
2018-04-22T15:08:11.599Z,1.87
2018-04-22T15:10:39.116Z,2.45
2018-04-22T15:13:07.048Z,2.12
2018-04-22T15:15:34.577Z,2.30
2018-04-22T15:18:02.123Z,2.05
2018-04-22T15:20:29.757Z,1.50
